createdAt,value
2019-01-24T00:02:02.801Z,10.18
2019-01-24T00:08:39.738Z,9.20
2019-01-24T00:15:07.391Z,11.90
2019-01-24T00:21:34.040Z,10.48
2019-01-24T00:28:05.269Z,10.00
2019-01-24T00:38:17.994Z,12.40
2019-01-24T00:44:57.288Z,9.65
2019-01-24T00:51:25.129Z,8.98
2019-01-24T00:57:52.745Z,10.00
2019-01-24T01:04:31.699Z,9.98
2019-01-24T01:10:58.370Z,10.75
2019-01-24T01:17:28.611Z,9.95
2019-01-24T01:24:07.561Z,10.00
2019-01-24T01:30:37.218Z,10.63
2019-01-24T01:40:18.046Z,11.45
2019-01-24T01:46:49.042Z,12.30
2019-01-24T01:53:14.656Z,9.58
2019-01-24T01:59:54.430Z,11.35
2019-01-24T02:06:20.282Z,8.70
2019-01-24T02:12:46.463Z,10.38
2019-01-24T02:19:29.453Z,10.55
2019-01-24T02:25:57.082Z,10.60
2019-01-24T02:32:24.982Z,11.22
2019-01-24T02:41:51.740Z,10.85
2019-01-24T02:48:26.648Z,10.72
2019-01-24T02:54:52.471Z,10.63
2019-01-24T03:01:18.290Z,9.35
2019-01-24T03:07:45.929Z,10.85
2019-01-24T03:14:14.981Z,12.10
2019-01-24T03:20:52.780Z,9.90
2019-01-24T03:27:25.592Z,11.22
2019-01-24T03:33:52.637Z,10.53
2019-01-24T03:43:42.101Z,9.30
2019-01-24T03:50:08.307Z,9.75
2019-01-24T03:56:36.142Z,10.70
2019-01-24T04:03:05.791Z,9.30
2019-01-24T04:09:32.828Z,9.75
2019-01-24T04:16:12.646Z,10.68
2019-01-24T04:22:37.598Z,9.70
2019-01-24T04:29:07.459Z,10.23
2019-01-24T04:35:48.215Z,12.75
2019-01-24T04:45:24.944Z,10.23
2019-01-24T04:52:01.854Z,20.12
2019-01-24T04:58:28.899Z,10.43
2019-01-24T05:04:56.736Z,9.55
2019-01-24T05:11:33.329Z,10.25
2019-01-24T05:18:01.509Z,8.80
2019-01-24T05:24:27.074Z,9.53
2019-01-24T05:31:08.124Z,14.95
2019-01-24T05:37:38.027Z,10.40
2019-01-24T05:43:27.424Z,10.60
2019-01-24T05:49:41.322Z,11.55
2019-01-24T05:56:21.990Z,9.30
2019-01-24T06:02:48.114Z,8.50
2019-01-24T06:09:17.373Z,10.10
2019-01-24T06:15:44.451Z,9.85
2019-01-24T06:22:24.762Z,9.20
2019-01-24T06:28:51.590Z,9.90
2019-01-24T06:35:17.408Z,9.45
2019-01-24T06:41:56.113Z,8.83
2019-01-24T06:48:09.675Z,10.03
2019-01-24T06:54:40.089Z,11.55
2019-01-24T07:01:03.721Z,11.70
2019-01-24T07:07:44.689Z,11.30
2019-01-24T07:14:12.335Z,11.10
2019-01-24T07:20:36.131Z,11.28
2019-01-24T07:27:17.952Z,10.88
2019-01-24T07:33:48.168Z,11.50
2019-01-24T07:40:19.043Z,10.35
2019-01-24T07:49:50.474Z,12.00
2019-01-24T07:56:16.325Z,11.65
2019-01-24T08:02:56.101Z,12.33
2019-01-24T08:09:11.188Z,12.50
2019-01-24T08:15:36.742Z,12.15
2019-01-24T08:22:15.965Z,12.78
2019-01-24T08:28:41.548Z,11.60
2019-01-24T08:35:11.641Z,11.40
2019-01-24T08:41:37.346Z,14.10
2019-01-24T08:51:54.213Z,11.40
2019-01-24T08:58:33.521Z,14.18
2019-01-24T09:04:59.342Z,11.50
2019-01-24T09:11:32.759Z,10.55
2019-01-24T09:18:12.839Z,13.72
2019-01-24T09:24:43.061Z,10.32
2019-01-24T09:31:08.638Z,10.13
2019-01-24T09:37:54.553Z,12.50
2019-01-24T09:43:45.998Z,13.88
2019-01-24T09:54:03.275Z,12.53
2019-01-24T10:00:38.402Z,11.80
2019-01-24T10:07:06.042Z,11.28
2019-01-24T10:13:47.855Z,11.70
2019-01-24T10:20:16.059Z,11.55
2019-01-24T10:26:43.905Z,12.43
2019-01-24T10:33:27.531Z,11.78
2019-01-24T10:39:55.742Z,12.53
2019-01-24T10:45:52.269Z,12.00
2019-01-24T10:55:54.232Z,12.45
2019-01-24T11:02:20.085Z,12.20
2019-01-24T11:09:01.019Z,13.05
2019-01-24T11:15:26.608Z,13.28
2019-01-24T11:21:52.662Z,13.48
2019-01-24T11:28:31.415Z,10.93
2019-01-24T11:34:58.083Z,12.18
2019-01-24T11:41:24.260Z,12.93
2019-01-24T11:47:56.143Z,12.33
2019-01-24T11:57:24.769Z,12.20
2019-01-24T12:04:03.721Z,10.60
2019-01-24T12:10:34.184Z,12.05
2019-01-24T12:17:03.308Z,10.88
2019-01-24T12:23:41.382Z,11.50
2019-01-24T12:30:11.242Z,11.75
2019-01-24T12:36:41.757Z,9.75
2019-01-24T12:43:09.951Z,10.68
2019-01-24T12:49:48.903Z,12.85
2019-01-24T12:59:55.934Z,11.65
2019-01-24T13:06:21.733Z,13.85
2019-01-24T13:12:47.343Z,12.60
2019-01-24T13:19:24.483Z,11.20
2019-01-24T13:25:50.102Z,11.65
2019-01-24T13:32:16.768Z,10.45
2019-01-24T13:38:42.952Z,13.62
2019-01-24T13:44:44.301Z,12.40
2019-01-24T13:51:14.246Z,12.43
2019-01-24T14:01:18.825Z,13.65
2019-01-24T14:07:48.232Z,13.30
2019-01-24T14:14:32.233Z,13.55
2019-01-24T14:20:57.674Z,13.38
2019-01-24T14:27:25.891Z,12.70
2019-01-24T14:33:46.516Z,11.03
2019-01-24T14:40:27.631Z,12.78
2019-01-24T14:47:03.587Z,15.05
2019-01-24T14:53:29.371Z,12.50
2019-01-24T15:03:31.994Z,13.58
2019-01-24T15:10:19.371Z,13.43
2019-01-24T15:16:47.850Z,13.32
2019-01-24T15:23:15.747Z,14.15
2019-01-24T15:29:58.040Z,14.85
2019-01-24T15:36:01.305Z,15.05
2019-01-24T15:42:30.431Z,15.18
2019-01-24T15:48:57.318Z,16.85
2019-01-24T15:55:36.272Z,17.07
2019-01-24T16:05:52.467Z,16.07
2019-01-24T16:12:29.026Z,15.15
2019-01-24T16:19:01.831Z,16.52
2019-01-24T16:25:40.787Z,16.75
2019-01-24T16:32:22.153Z,16.07
2019-01-24T16:38:56.176Z,14.63
2019-01-24T16:45:43.054Z,14.28
2019-01-24T16:52:12.526Z,16.37
2019-01-24T16:58:38.367Z,17.42
2019-01-24T17:08:40.693Z,17.07
2019-01-24T17:15:07.524Z,16.60
2019-01-24T17:21:46.133Z,17.27
2019-01-24T17:28:12.291Z,18.05
2019-01-24T17:34:54.276Z,16.65
2019-01-24T17:41:35.497Z,19.27
2019-01-24T17:48:01.879Z,16.65
2019-01-24T17:54:25.874Z,16.37
2019-01-24T18:00:54.395Z,14.23
2019-01-24T18:10:24.159Z,16.02
2019-01-24T18:17:06.345Z,16.00
2019-01-24T18:23:32.162Z,16.25
2019-01-24T18:29:59.810Z,15.25
2019-01-24T18:36:36.932Z,16.52
2019-01-24T18:43:06.587Z,15.80
2019-01-24T18:49:33.256Z,15.48
2019-01-24T18:56:01.462Z,15.45
2019-01-24T19:02:40.110Z,16.87
2019-01-24T19:12:19.148Z,15.93
2019-01-24T19:18:47.608Z,15.88
2019-01-24T19:25:18.784Z,17.07
2019-01-24T19:31:47.498Z,14.60
2019-01-24T19:38:26.451Z,16.70
2019-01-24T19:44:57.537Z,15.28
2019-01-24T19:48:27.618Z,15.25
2019-01-24T19:54:41.319Z,14.80
2019-01-24T20:01:06.761Z,14.30
2019-01-24T20:07:46.082Z,17.17
2019-01-24T20:13:36.560Z,16.77
2019-01-24T20:20:00.262Z,16.48
2019-01-24T20:26:27.179Z,17.15
2019-01-24T20:33:08.149Z,16.23
2019-01-24T20:39:33.970Z,17.57
2019-01-24T20:46:03.614Z,16.42
2019-01-24T20:55:40.342Z,15.95
2019-01-24T21:02:07.024Z,17.05
2019-01-24T21:08:45.323Z,16.97
2019-01-24T21:15:12.143Z,18.25
2019-01-24T21:21:37.958Z,16.00
2019-01-24T21:28:16.910Z,16.85
2019-01-24T21:34:55.857Z,16.17
2019-01-24T21:40:58.446Z,15.35
2019-01-24T21:47:37.041Z,15.70
2019-01-24T21:57:52.269Z,17.27
2019-01-24T22:04:16.073Z,17.70
2019-01-24T22:10:53.218Z,17.12
2019-01-24T22:17:34.805Z,16.55
2019-01-24T22:24:15.812Z,17.37
2019-01-24T22:30:58.060Z,18.32
2019-01-24T22:37:38.108Z,15.95
2019-01-24T22:44:17.056Z,18.25
2019-01-24T22:50:59.040Z,17.50
2019-01-24T23:01:42.411Z,14.58
2019-01-24T23:08:12.041Z,19.80
2019-01-24T23:14:37.893Z,18.35
2019-01-24T23:21:04.564Z,19.05
2019-01-24T23:27:30.738Z,17.80
2019-01-24T23:33:54.534Z,18.50
2019-01-24T23:40:20.360Z,18.00
2019-01-24T23:46:45.424Z,17.80
2019-01-24T23:53:13.807Z,16.60
